createdAt,value
2017-05-13T00:00:37.957Z,76.50
2017-05-13T00:03:07.008Z,76.60
2017-05-13T00:05:35.303Z,77.00
2017-05-13T00:08:03.622Z,77.50
2017-05-13T00:10:32.655Z,77.70
2017-05-13T00:13:00.946Z,79.20
2017-05-13T00:15:29.262Z,79.10
2017-05-13T00:17:58.307Z,80.10
2017-05-13T00:20:26.603Z,81.60
2017-05-13T00:22:54.936Z,82.60
2017-05-13T00:25:23.232Z,82.30
2017-05-13T00:27:51.525Z,81.10
2017-05-13T00:30:19.859Z,77.30
2017-05-13T00:32:48.152Z,78.80
2017-05-13T00:35:16.444Z,79.70
2017-05-13T00:37:44.770Z,80.70
2017-05-13T00:40:13.065Z,81.80
2017-05-13T00:42:42.095Z,82.00
2017-05-13T00:45:10.407Z,81.90
2017-05-13T00:47:38.696Z,81.30
2017-05-13T00:50:07.732Z,81.30
2017-05-13T00:52:36.065Z,80.60
2017-05-13T00:55:04.352Z,80.60
2017-05-13T00:57:32.646Z,81.30
2017-05-13T01:00:00.975Z,82.20
2017-05-13T01:02:29.263Z,82.60
2017-05-13T01:04:57.561Z,82.90
2017-05-13T01:07:25.880Z,81.80
2017-05-13T01:09:54.179Z,81.90
2017-05-13T01:12:22.477Z,82.10
2017-05-13T01:14:51.539Z,81.80
2017-05-13T01:17:19.832Z,81.40
2017-05-13T01:19:48.142Z,80.60
2017-05-13T01:22:16.474Z,80.70
2017-05-13T01:24:44.767Z,80.70
2017-05-13T01:27:13.067Z,80.10
2017-05-13T01:29:41.404Z,80.10
2017-05-13T01:32:10.446Z,78.50
2017-05-13T01:34:38.736Z,80.50
2017-05-13T01:37:07.047Z,81.10
2017-05-13T01:39:35.338Z,81.20
2017-05-13T01:42:04.367Z,81.40
2017-05-13T01:44:32.688Z,81.80
2017-05-13T01:47:00.978Z,82.00
2017-05-13T01:49:30.006Z,81.90
2017-05-13T01:51:58.323Z,81.30
2017-05-13T01:54:26.615Z,81.90
2017-05-13T01:56:54.907Z,81.80
2017-05-13T01:59:23.235Z,81.70
2017-05-13T02:01:51.523Z,82.00
2017-05-13T02:04:20.553Z,82.40
2017-05-13T02:06:48.876Z,82.10
2017-05-13T02:09:17.171Z,82.00
2017-05-13T02:11:46.198Z,82.30
2017-05-13T02:14:14.522Z,81.90
2017-05-13T02:16:42.818Z,81.60
2017-05-13T02:19:11.107Z,81.00
2017-05-13T02:21:39.443Z,80.40
2017-05-13T02:24:07.732Z,81.30
2017-05-13T02:26:36.025Z,79.90
2017-05-13T02:29:04.351Z,78.60
2017-05-13T02:31:32.638Z,79.10
2017-05-13T02:34:00.923Z,79.30
2017-05-13T02:36:29.252Z,79.70
2017-05-13T02:38:58.289Z,80.30
2017-05-13T02:41:26.580Z,80.80
2017-05-13T02:43:54.912Z,81.00
2017-05-13T02:46:23.957Z,81.30
2017-05-13T02:48:52.253Z,82.40
2017-05-13T02:51:20.899Z,82.20
2017-05-13T02:53:49.186Z,82.30
2017-05-13T02:56:17.471Z,82.10
2017-05-13T02:58:45.792Z,82.00
2017-05-13T03:01:14.828Z,82.80
2017-05-13T03:03:43.116Z,83.10
2017-05-13T03:06:11.447Z,83.00
2017-05-13T03:08:40.498Z,82.60
2017-05-13T03:11:08.810Z,81.20
2017-05-13T03:13:37.163Z,80.30
2017-05-13T03:16:05.479Z,80.60
2017-05-13T03:18:34.529Z,81.50
2017-05-13T03:21:02.883Z,82.20
2017-05-13T03:23:31.178Z,82.70
2017-05-13T03:26:00.225Z,78.00
2017-05-13T03:28:28.578Z,77.90
2017-05-13T03:30:56.891Z,78.20
2017-05-13T03:33:25.215Z,78.10
2017-05-13T03:35:53.568Z,79.80
2017-05-13T03:38:22.627Z,81.20
2017-05-13T03:40:50.950Z,81.40
2017-05-13T03:43:20.043Z,82.00
2017-05-13T03:45:49.074Z,83.70
2017-05-13T03:48:17.384Z,84.50
2017-05-13T03:50:45.734Z,84.60
2017-05-13T03:53:14.050Z,85.10
2017-05-13T03:55:43.102Z,84.90
2017-05-13T03:58:11.442Z,83.60
2017-05-13T04:00:40.489Z,82.20
2017-05-13T04:03:08.789Z,80.70
2017-05-13T04:05:37.119Z,80.10
2017-05-13T04:08:05.426Z,80.30
2017-05-13T04:10:33.743Z,81.00
2017-05-13T04:13:02.840Z,81.60
2017-05-13T04:15:31.871Z,82.10
2017-05-13T04:18:00.177Z,82.50
2017-05-13T04:20:28.526Z,82.70
2017-05-13T04:22:57.577Z,82.60
2017-05-13T04:25:25.886Z,82.30
2017-05-13T04:27:54.235Z,82.00
2017-05-13T04:30:22.549Z,81.90
2017-05-13T04:32:51.605Z,81.80
2017-05-13T04:35:19.958Z,81.50
2017-05-13T04:37:48.250Z,81.10
2017-05-13T04:40:16.545Z,79.70
2017-05-13T04:42:44.890Z,80.10
2017-05-13T04:45:13.198Z,80.70
2017-05-13T04:47:41.550Z,80.60
2017-05-13T04:50:10.750Z,81.10
2017-05-13T04:52:39.066Z,81.50
2017-05-13T04:55:07.374Z,82.20
2017-05-13T04:57:36.448Z,83.10
2017-05-13T05:00:04.763Z,81.80
2017-05-13T05:02:33.095Z,81.80
2017-05-13T05:05:01.409Z,81.50
2017-05-13T05:07:29.727Z,81.50
2017-05-13T05:09:58.082Z,80.70
2017-05-13T05:12:26.387Z,80.90
2017-05-13T05:14:54.702Z,80.50
2017-05-13T05:17:23.054Z,80.20
2017-05-13T05:19:51.370Z,80.60
2017-05-13T05:22:20.407Z,81.20
2017-05-13T05:24:48.743Z,81.50
2017-05-13T05:27:17.799Z,81.50
2017-05-13T05:29:46.105Z,81.40
2017-05-13T05:32:14.458Z,80.90
2017-05-13T05:34:42.774Z,80.50
2017-05-13T05:37:11.820Z,80.20
2017-05-13T05:39:40.906Z,80.30
2017-05-13T05:42:09.972Z,80.60
2017-05-13T05:44:38.294Z,80.70
2017-05-13T05:47:06.615Z,80.60
2017-05-13T05:49:34.927Z,80.60
2017-05-13T05:52:03.982Z,80.70
2017-05-13T05:54:32.312Z,80.60
2017-05-13T05:57:01.360Z,80.30
2017-05-13T05:59:29.759Z,80.20
2017-05-13T06:01:58.103Z,79.90
2017-05-13T06:04:26.431Z,77.70
2017-05-13T06:06:55.467Z,76.20
2017-05-13T06:09:23.894Z,75.20
2017-05-13T06:11:52.534Z,74.70
2017-05-13T06:14:20.911Z,73.40
2017-05-13T06:16:49.248Z,72.90
2017-05-13T06:19:18.300Z,73.30
2017-05-13T06:21:46.601Z,73.60
2017-05-13T06:24:14.940Z,73.70
2017-05-13T06:26:43.247Z,69.60
2017-05-13T06:29:11.560Z,65.90
2017-05-13T06:31:40.659Z,61.00
2017-05-13T06:34:09.694Z,59.00
2017-05-13T06:36:38.049Z,54.90
2017-05-13T06:39:06.400Z,52.30
2017-05-13T06:41:35.470Z,50.50
2017-05-13T06:44:03.769Z,49.80
2017-05-13T06:46:32.113Z,47.30
2017-05-13T06:49:00.436Z,48.20
2017-05-13T06:51:29.473Z,49.80
2017-05-13T06:53:58.187Z,52.10
2017-05-13T06:56:26.503Z,52.20
2017-05-13T06:58:55.550Z,54.60
2017-05-13T07:01:23.903Z,54.80
2017-05-13T07:03:52.219Z,56.00
2017-05-13T07:06:20.519Z,56.80
2017-05-13T07:08:49.610Z,55.30
2017-05-13T07:11:18.677Z,53.90
2017-05-13T07:13:46.995Z,50.50
2017-05-13T07:16:15.328Z,47.80
2017-05-13T07:18:43.637Z,46.60
2017-05-13T07:21:12.718Z,47.50
2017-05-13T07:23:41.058Z,47.60
2017-05-13T07:26:09.356Z,47.70
2017-05-13T07:28:37.653Z,48.90
2017-05-13T07:31:06.757Z,51.00
2017-05-13T07:33:35.813Z,51.90
2017-05-13T07:36:04.131Z,53.20
2017-05-13T07:38:33.235Z,54.40
2017-05-13T07:41:02.290Z,55.50
2017-05-13T07:43:30.595Z,57.00
2017-05-13T07:45:59.687Z,57.30
2017-05-13T07:48:28.752Z,58.40
2017-05-13T07:50:57.118Z,58.00
2017-05-13T07:53:25.469Z,57.70
2017-05-13T07:55:53.783Z,57.60
2017-05-13T07:58:22.084Z,57.30
2017-05-13T08:00:50.434Z,54.80
2017-05-13T08:03:19.486Z,53.30
2017-05-13T08:05:47.786Z,49.60
2017-05-13T08:08:16.143Z,46.80
2017-05-13T08:10:44.466Z,46.20
2017-05-13T08:13:13.522Z,47.60
2017-05-13T08:15:41.871Z,46.80
2017-05-13T08:18:10.185Z,47.20
2017-05-13T08:20:38.500Z,47.20
2017-05-13T08:23:07.571Z,48.10
2017-05-13T08:25:35.890Z,45.00
2017-05-13T08:28:04.191Z,45.40
2017-05-13T08:30:32.526Z,45.50
2017-05-13T08:33:01.574Z,45.60
2017-05-13T08:35:29.869Z,46.70
2017-05-13T08:37:58.222Z,47.60
2017-05-13T08:40:26.539Z,49.10
2017-05-13T08:42:54.862Z,50.20
2017-05-13T08:45:23.211Z,51.90
2017-05-13T08:47:52.267Z,51.20
2017-05-13T08:50:21.323Z,51.90
2017-05-13T08:52:49.677Z,52.50
2017-05-13T08:55:17.994Z,52.80
2017-05-13T08:57:46.290Z,52.80
2017-05-13T09:00:14.642Z,53.20
2017-05-13T09:02:42.961Z,54.00
2017-05-13T09:05:12.000Z,53.80
2017-05-13T09:07:40.350Z,53.10
2017-05-13T09:10:08.662Z,52.30
2017-05-13T09:12:36.986Z,52.60
2017-05-13T09:15:06.078Z,51.70
2017-05-13T09:17:35.139Z,52.30
2017-05-13T09:20:03.445Z,51.60
2017-05-13T09:22:32.207Z,51.30
2017-05-13T09:25:00.518Z,51.50
2017-05-13T09:27:29.580Z,51.20
2017-05-13T09:29:57.938Z,50.70
2017-05-13T09:32:26.258Z,50.30
2017-05-13T09:34:54.559Z,50.90
2017-05-13T09:37:23.645Z,50.70
2017-05-13T09:39:52.679Z,50.50
2017-05-13T09:42:20.977Z,51.60
2017-05-13T09:44:49.330Z,52.10
2017-05-13T09:47:17.646Z,49.90
2017-05-13T09:49:45.972Z,49.10
2017-05-13T09:52:15.060Z,48.50
2017-05-13T09:54:43.402Z,45.40
2017-05-13T09:57:11.724Z,43.30
2017-05-13T09:59:40.823Z,45.90
2017-05-13T10:02:09.124Z,41.10
2017-05-13T10:04:37.441Z,41.40
2017-05-13T10:07:05.782Z,40.70
2017-05-13T10:09:34.099Z,41.30
2017-05-13T10:12:02.405Z,40.20
2017-05-13T10:14:31.493Z,42.50
2017-05-13T10:16:59.810Z,43.20
2017-05-13T10:19:28.862Z,44.40
2017-05-13T10:21:57.214Z,44.20
2017-05-13T10:24:25.531Z,45.40
2017-05-13T10:26:53.852Z,47.50
2017-05-13T10:29:22.202Z,48.40
2017-05-13T10:31:50.518Z,50.30
2017-05-13T10:34:18.815Z,52.50
2017-05-13T10:36:47.902Z,52.90
2017-05-13T10:39:16.958Z,54.50
2017-05-13T10:41:45.258Z,56.00
2017-05-13T10:44:13.587Z,56.60
2017-05-13T10:46:41.894Z,57.20
2017-05-13T10:49:10.203Z,58.90
2017-05-13T10:51:39.299Z,59.40
2017-05-13T10:54:08.357Z,58.50
2017-05-13T10:56:36.671Z,59.90
2017-05-13T10:59:05.761Z,63.50
2017-05-13T11:01:34.061Z,64.90
2017-05-13T11:04:03.116Z,63.90
2017-05-13T11:06:31.470Z,65.70
2017-05-13T11:08:59.790Z,65.10
2017-05-13T11:11:28.102Z,65.00
2017-05-13T11:13:56.447Z,66.70
2017-05-13T11:16:24.738Z,70.30
2017-05-13T11:18:53.790Z,73.40
2017-05-13T11:21:22.869Z,75.50
2017-05-13T11:23:51.186Z,75.00
2017-05-13T11:26:19.496Z,75.20
2017-05-13T11:28:48.590Z,76.80
2017-05-13T11:31:17.623Z,77.70
2017-05-13T11:33:45.920Z,77.60
2017-05-13T11:36:14.254Z,76.00
2017-05-13T11:38:43.305Z,73.70
2017-05-13T11:41:11.620Z,71.10
2017-05-13T11:43:39.955Z,71.10
2017-05-13T11:46:08.266Z,68.60
2017-05-13T11:48:36.585Z,67.50
2017-05-13T11:51:04.923Z,68.50
2017-05-13T11:53:33.217Z,66.80
2017-05-13T11:56:02.266Z,64.90
2017-05-13T11:58:30.617Z,63.40
2017-05-13T12:00:58.931Z,61.80
2017-05-13T12:03:27.249Z,58.20
2017-05-13T12:05:56.342Z,56.00
2017-05-13T12:08:25.401Z,54.20
2017-05-13T12:10:53.714Z,53.70
2017-05-13T12:13:22.812Z,52.70
2017-05-13T12:15:51.851Z,53.10
2017-05-13T12:18:20.148Z,53.70
2017-05-13T12:20:49.240Z,50.80
2017-05-13T12:23:18.301Z,50.70
2017-05-13T12:25:46.623Z,50.10
2017-05-13T12:28:15.696Z,51.80
2017-05-13T12:30:44.012Z,48.80
2017-05-13T12:33:12.311Z,49.90
2017-05-13T12:35:40.643Z,50.40
2017-05-13T12:38:09.695Z,50.00
2017-05-13T12:40:38.007Z,50.10
2017-05-13T12:43:06.351Z,48.30
2017-05-13T12:45:34.673Z,47.60
2017-05-13T12:48:03.726Z,46.60
2017-05-13T12:50:32.074Z,46.80
2017-05-13T12:53:00.388Z,47.60
2017-05-13T12:55:28.703Z,48.40
2017-05-13T12:57:57.798Z,51.10
2017-05-13T13:00:26.839Z,51.90
2017-05-13T13:02:55.151Z,52.00
2017-05-13T13:05:23.506Z,51.90
2017-05-13T13:07:51.803Z,52.10
2017-05-13T13:10:20.095Z,50.30
2017-05-13T13:12:48.431Z,48.40
2017-05-13T13:15:17.481Z,47.30
2017-05-13T13:17:45.790Z,45.40
2017-05-13T13:20:14.888Z,46.10
2017-05-13T13:22:43.927Z,46.20
2017-05-13T13:25:12.237Z,44.80
2017-05-13T13:27:40.583Z,48.20
2017-05-13T13:30:08.898Z,47.00
2017-05-13T13:32:37.215Z,45.80
2017-05-13T13:35:05.561Z,46.20
2017-05-13T13:37:33.874Z,46.30
2017-05-13T13:40:02.192Z,45.70
2017-05-13T13:42:30.549Z,44.10
2017-05-13T13:44:58.915Z,43.20
2017-05-13T13:47:27.240Z,44.20
2017-05-13T13:49:55.594Z,44.80
2017-05-13T13:52:23.907Z,44.50
2017-05-13T13:54:52.222Z,42.30
2017-05-13T13:57:20.573Z,43.30
2017-05-13T13:59:49.632Z,44.10
2017-05-13T14:02:17.922Z,43.80
2017-05-13T14:04:46.270Z,43.90
2017-05-13T14:07:14.582Z,42.50
2017-05-13T14:09:42.908Z,43.90
2017-05-13T14:12:11.259Z,45.50
2017-05-13T14:14:40.398Z,46.10
2017-05-13T14:17:08.714Z,46.20
2017-05-13T14:19:37.062Z,45.50
2017-05-13T14:22:05.381Z,45.00
2017-05-13T14:24:33.702Z,46.40
2017-05-13T14:27:02.039Z,43.30
2017-05-13T14:29:30.350Z,45.20
2017-05-13T14:31:58.675Z,44.20
2017-05-13T14:34:27.018Z,43.30
2017-05-13T14:36:55.315Z,41.60
2017-05-13T14:39:24.373Z,42.00
2017-05-13T14:41:52.699Z,42.90
2017-05-13T14:44:20.994Z,43.60
2017-05-13T14:46:49.818Z,44.60
2017-05-13T14:49:18.899Z,43.60
2017-05-13T14:51:47.960Z,43.70
2017-05-13T14:54:16.278Z,43.10
2017-05-13T14:56:45.338Z,43.40
2017-05-13T14:59:13.655Z,42.40
2017-05-13T15:01:42.743Z,42.60
2017-05-13T15:04:11.819Z,42.60
2017-05-13T15:06:40.141Z,42.90
2017-05-13T15:09:09.251Z,42.90
2017-05-13T15:11:37.546Z,42.70
2017-05-13T15:14:05.858Z,42.50
2017-05-13T15:16:34.199Z,43.00
2017-05-13T15:19:02.515Z,44.00
2017-05-13T15:21:30.823Z,43.50
2017-05-13T15:23:59.166Z,43.40
2017-05-13T15:26:27.489Z,42.40
2017-05-13T15:28:55.808Z,42.10
2017-05-13T15:31:24.169Z,42.60
2017-05-13T15:33:52.486Z,44.00
2017-05-13T15:36:20.778Z,44.80
2017-05-13T15:38:50.058Z,46.10
2017-05-13T15:41:18.372Z,47.70
2017-05-13T15:43:46.688Z,48.50
2017-05-13T15:46:15.038Z,47.70
2017-05-13T15:48:43.341Z,48.30
2017-05-13T15:51:11.655Z,48.40
2017-05-13T15:53:39.970Z,46.60
2017-05-13T15:56:08.286Z,46.60
2017-05-13T15:58:36.617Z,47.30
2017-05-13T16:01:04.966Z,46.70
2017-05-13T16:03:33.286Z,46.70
2017-05-13T16:06:01.614Z,47.70
2017-05-13T16:08:29.965Z,48.40
2017-05-13T16:10:59.027Z,47.60
2017-05-13T16:13:27.360Z,48.30
2017-05-13T16:15:55.714Z,49.50
2017-05-13T16:18:24.766Z,49.30
2017-05-13T16:20:53.831Z,50.50
2017-05-13T16:23:22.162Z,49.40
2017-05-13T16:25:50.473Z,49.70
2017-05-13T16:28:18.786Z,50.50
2017-05-13T16:30:47.887Z,49.60
2017-05-13T16:33:16.983Z,48.80
2017-05-13T16:35:46.038Z,48.50
2017-05-13T16:38:14.388Z,49.00
2017-05-13T16:40:42.702Z,49.00
2017-05-13T16:43:11.022Z,49.30
2017-05-13T16:45:39.371Z,49.50
2017-05-13T16:48:07.720Z,50.70
2017-05-13T16:50:36.024Z,50.80
2017-05-13T16:53:04.356Z,50.10
2017-05-13T16:55:32.683Z,50.00
2017-05-13T16:58:01.010Z,51.30
2017-05-13T17:00:29.386Z,51.40
2017-05-13T17:02:57.704Z,53.10
2017-05-13T17:05:26.022Z,52.60
2017-05-13T17:07:55.119Z,53.10
2017-05-13T17:10:24.187Z,53.50
2017-05-13T17:12:52.495Z,54.10
2017-05-13T17:15:21.595Z,54.30
2017-05-13T17:17:50.663Z,54.60
2017-05-13T17:20:18.995Z,55.10
2017-05-13T17:22:47.359Z,55.20
2017-05-13T17:25:15.694Z,54.70
2017-05-13T17:27:44.026Z,54.20
2017-05-13T17:30:12.401Z,53.00
2017-05-13T17:32:41.529Z,53.20
2017-05-13T17:35:09.855Z,53.80
2017-05-13T17:37:38.955Z,54.50
2017-05-13T17:40:08.005Z,53.80
2017-05-13T17:42:36.783Z,53.70
2017-05-13T17:45:05.126Z,54.70
2017-05-13T17:47:34.186Z,54.50
2017-05-13T17:50:02.483Z,55.30
2017-05-13T17:52:30.847Z,56.10
2017-05-13T17:54:59.148Z,54.90
2017-05-13T17:57:27.458Z,55.00
2017-05-13T17:59:55.807Z,54.70
2017-05-13T18:02:24.866Z,55.50
2017-05-13T18:04:53.182Z,55.10
2017-05-13T18:07:22.317Z,55.70
2017-05-13T18:09:50.635Z,55.70
2017-05-13T18:12:18.950Z,55.50
2017-05-13T18:14:48.011Z,55.40
2017-05-13T18:17:16.331Z,55.60
2017-05-13T18:19:44.646Z,56.10
2017-05-13T18:22:12.998Z,56.10
2017-05-13T18:24:41.314Z,56.30
2017-05-13T18:27:09.633Z,56.30
2017-05-13T18:29:37.988Z,57.00
2017-05-13T18:32:06.302Z,56.50
2017-05-13T18:34:34.607Z,57.00
2017-05-13T18:37:02.948Z,58.10
2017-05-13T18:39:32.006Z,59.00
2017-05-13T18:42:00.303Z,59.50
2017-05-13T18:44:28.654Z,60.00
2017-05-13T18:46:56.972Z,60.80
2017-05-13T18:49:26.027Z,61.40
2017-05-13T18:51:54.380Z,62.20
2017-05-13T18:54:22.699Z,63.50
2017-05-13T18:56:51.014Z,64.70
2017-05-13T18:59:19.365Z,66.50
2017-05-13T19:01:47.687Z,66.00
2017-05-13T19:04:15.984Z,66.20
2017-05-13T19:06:44.339Z,66.20
2017-05-13T19:09:12.668Z,65.90
2017-05-13T19:11:40.990Z,66.10
2017-05-13T19:14:09.336Z,67.00
2017-05-13T19:16:37.646Z,68.20
2017-05-13T19:19:05.963Z,68.90
2017-05-13T19:21:35.039Z,69.60
2017-05-13T19:24:03.346Z,69.90
2017-05-13T19:26:31.653Z,68.20
2017-05-13T19:29:00.015Z,67.70
2017-05-13T19:31:28.328Z,67.30
2017-05-13T19:33:56.642Z,67.80
2017-05-13T19:36:25.720Z,69.50
2017-05-13T19:38:54.034Z,70.50
2017-05-13T19:41:23.069Z,72.20
2017-05-13T19:43:51.421Z,72.90
2017-05-13T19:46:19.733Z,73.90
2017-05-13T19:48:48.046Z,74.10
2017-05-13T19:51:17.139Z,73.70
2017-05-13T19:53:45.450Z,73.20
2017-05-13T19:56:14.505Z,73.50
2017-05-13T19:58:42.840Z,73.30
2017-05-13T20:01:11.155Z,73.10
2017-05-13T20:03:39.465Z,73.70
2017-05-13T20:06:07.818Z,72.90
2017-05-13T20:08:36.129Z,72.60
2017-05-13T20:11:05.183Z,70.20
2017-05-13T20:13:33.538Z,71.00
2017-05-13T20:16:01.854Z,73.00
2017-05-13T20:18:30.168Z,74.40
2017-05-13T20:20:58.522Z,74.40
2017-05-13T20:23:26.836Z,70.90
2017-05-13T20:25:55.128Z,72.00
2017-05-13T20:28:23.483Z,72.20
2017-05-13T20:30:51.800Z,71.50
2017-05-13T20:33:20.104Z,72.50
2017-05-13T20:35:48.450Z,72.90
2017-05-13T20:38:17.507Z,75.40
2017-05-13T20:40:45.827Z,76.50
2017-05-13T20:43:14.888Z,77.00
2017-05-13T20:45:43.198Z,78.20
2017-05-13T20:48:12.255Z,77.60
2017-05-13T20:50:40.606Z,77.10
2017-05-13T20:53:08.908Z,74.10
2017-05-13T20:55:37.218Z,75.90
2017-05-13T20:58:05.571Z,76.00
2017-05-13T21:00:33.891Z,76.70
2017-05-13T21:03:02.946Z,76.90
2017-05-13T21:05:31.281Z,76.30
2017-05-13T21:07:59.596Z,74.30
2017-05-13T21:10:27.961Z,75.10
2017-05-13T21:12:56.280Z,75.10
2017-05-13T21:15:24.594Z,76.10
2017-05-13T21:17:52.906Z,76.70
2017-05-13T21:20:21.244Z,77.00
2017-05-13T21:22:49.559Z,78.80
2017-05-13T21:25:17.877Z,78.40
2017-05-13T21:27:46.965Z,78.70
2017-05-13T21:30:15.281Z,78.60
2017-05-13T21:32:44.346Z,78.90
2017-05-13T21:35:12.673Z,76.80
2017-05-13T21:37:46.690Z,76.80
2017-05-13T21:40:15.042Z,77.60
2017-05-13T21:42:44.131Z,77.70
2017-05-13T21:45:12.442Z,77.90
2017-05-13T21:47:40.779Z,78.50
2017-05-13T21:50:09.098Z,79.80
2017-05-13T21:52:37.420Z,80.20
2017-05-13T21:55:05.755Z,79.40
2017-05-13T21:57:34.063Z,79.90
2017-05-13T22:00:02.375Z,79.40
2017-05-13T22:02:30.739Z,80.50
2017-05-13T22:04:59.055Z,80.10
2017-05-13T22:07:27.351Z,81.00
2017-05-13T22:09:55.688Z,79.20
2017-05-13T22:12:24.006Z,79.20
2017-05-13T22:14:52.323Z,79.20
2017-05-13T22:17:20.674Z,79.50
2017-05-13T22:19:48.986Z,79.20
2017-05-13T22:22:17.306Z,78.10
2017-05-13T22:24:45.658Z,78.70
2017-05-13T22:27:13.981Z,79.20
2017-05-13T22:29:42.298Z,79.60
2017-05-13T22:32:10.657Z,79.20
2017-05-13T22:34:38.951Z,78.90
2017-05-13T22:37:07.263Z,79.40
2017-05-13T22:39:36.354Z,79.90
2017-05-13T22:42:04.666Z,80.10
2017-05-13T22:44:32.969Z,80.30
2017-05-13T22:47:01.322Z,79.70
2017-05-13T22:49:29.639Z,79.60
2017-05-13T22:51:57.954Z,80.50
2017-05-13T22:54:27.032Z,79.90
2017-05-13T22:56:56.083Z,80.20
2017-05-13T22:59:24.383Z,80.30
2017-05-13T23:01:52.730Z,80.00
2017-05-13T23:04:21.051Z,80.00
2017-05-13T23:06:49.362Z,79.60
2017-05-13T23:09:17.714Z,79.50
2017-05-13T23:11:46.833Z,78.90
2017-05-13T23:14:15.139Z,78.70
2017-05-13T23:16:43.490Z,78.20
2017-05-13T23:19:11.802Z,77.70
2017-05-13T23:21:40.100Z,77.40
2017-05-13T23:24:08.451Z,77.70
2017-05-13T23:26:36.766Z,77.70
2017-05-13T23:29:05.084Z,77.20
2017-05-13T23:31:34.183Z,77.30
2017-05-13T23:34:03.233Z,77.10
2017-05-13T23:36:31.548Z,77.30
2017-05-13T23:39:00.622Z,77.90
2017-05-13T23:41:28.970Z,78.40
2017-05-13T23:43:57.284Z,78.70
2017-05-13T23:46:25.641Z,78.70
2017-05-13T23:48:53.964Z,78.70
2017-05-13T23:51:22.305Z,78.70
2017-05-13T23:53:50.644Z,78.20
2017-05-13T23:56:18.964Z,78.00
2017-05-13T23:58:47.278Z,78.60
